createdAt,value
2022-12-31T00:03:58.046Z,82.22
2022-12-31T00:08:51.822Z,82.23
2022-12-31T00:13:43.844Z,82.03
2022-12-31T00:18:35.806Z,81.94
2022-12-31T00:23:27.467Z,80.75
2022-12-31T00:28:18.977Z,80.83
2022-12-31T00:33:11.017Z,80.41
2022-12-31T00:38:02.548Z,80.29
2022-12-31T00:42:54.972Z,80.40
2022-12-31T00:47:46.498Z,80.28
2022-12-31T00:52:38.807Z,80.28
2022-12-31T00:57:30.507Z,80.09
2022-12-31T01:02:22.224Z,80.11
2022-12-31T01:07:13.877Z,79.32
2022-12-31T01:12:05.811Z,79.32
2022-12-31T01:16:57.357Z,79.40
2022-12-31T01:21:50.990Z,79.25
2022-12-31T01:26:42.805Z,78.73
2022-12-31T01:31:37.002Z,79.18
2022-12-31T01:36:31.108Z,78.93
2022-12-31T01:41:34.215Z,78.18
2022-12-31T01:46:28.540Z,78.67
2022-12-31T01:51:22.198Z,78.77
2022-12-31T01:56:14.400Z,78.47
2022-12-31T02:01:09.629Z,78.68
2022-12-31T02:06:04.931Z,78.03
2022-12-31T02:10:56.511Z,77.17
2022-12-31T02:16:01.049Z,76.24
2022-12-31T02:21:04.955Z,75.94
2022-12-31T02:26:15.293Z,75.11
2022-12-31T02:31:13.641Z,74.69
2022-12-31T02:36:12.837Z,74.06
2022-12-31T02:41:04.645Z,73.13
2022-12-31T02:46:15.464Z,72.23
2022-12-31T02:51:51.955Z,71.52
2022-12-31T02:56:58.702Z,70.98
2022-12-31T03:02:16.392Z,70.46
2022-12-31T03:07:10.337Z,70.19
2022-12-31T03:12:21.543Z,70.65
2022-12-31T03:17:13.122Z,70.88
2022-12-31T03:22:23.962Z,71.15
2022-12-31T03:27:15.547Z,71.86
2022-12-31T03:32:07.085Z,72.05
2022-12-31T03:36:58.656Z,72.21
2022-12-31T03:41:50.214Z,72.61
2022-12-31T03:46:41.743Z,72.67
2022-12-31T04:21:54.536Z,72.64
2022-12-31T04:26:46.155Z,71.99
2022-12-31T04:31:37.725Z,71.88
2022-12-31T04:36:29.476Z,71.41
2022-12-31T04:41:21.152Z,70.62
2022-12-31T04:46:13.892Z,70.13
2022-12-31T04:51:05.903Z,69.69
2022-12-31T04:55:57.444Z,69.25
2022-12-31T05:00:51.473Z,68.82
2022-12-31T05:05:43.517Z,69.04
2022-12-31T05:10:35.156Z,68.73
2022-12-31T05:15:26.659Z,68.69
2022-12-31T05:20:18.177Z,67.65
2022-12-31T05:25:09.768Z,66.86
2022-12-31T05:30:01.499Z,67.17
2022-12-31T05:34:53.586Z,67.21
2022-12-31T05:39:45.166Z,66.96
2022-12-31T05:44:36.711Z,66.03
2022-12-31T05:49:28.305Z,65.90
2022-12-31T05:54:19.946Z,66.05
2022-12-31T05:59:11.594Z,66.50
2022-12-31T06:04:03.198Z,66.87
2022-12-31T06:08:54.813Z,66.92
2022-12-31T06:13:46.393Z,67.62
2022-12-31T06:18:38.078Z,67.32
2022-12-31T06:23:30.120Z,67.36
2022-12-31T06:28:21.724Z,67.33
2022-12-31T06:33:13.321Z,66.75
2022-12-31T06:38:05.498Z,66.39
2022-12-31T06:43:00.116Z,66.69
2022-12-31T06:47:51.810Z,66.26
2022-12-31T06:52:43.441Z,66.18
2022-12-31T06:57:35.432Z,66.48
2022-12-31T07:02:57.116Z,66.57
2022-12-31T07:08:10.069Z,67.05
2022-12-31T07:13:17.899Z,66.38
2022-12-31T07:18:34.581Z,66.48
2022-12-31T07:23:26.498Z,66.06
2022-12-31T07:28:34.375Z,66.00
2022-12-31T07:33:31.897Z,66.08
2022-12-31T07:38:37.824Z,65.80
2022-12-31T07:43:46.612Z,65.86
2022-12-31T07:48:38.364Z,65.80
2022-12-31T07:53:30.400Z,64.86
2022-12-31T07:58:26.045Z,64.75
2022-12-31T08:03:55.673Z,64.65
2022-12-31T08:09:00.584Z,64.68
2022-12-31T08:13:54.293Z,64.48
2022-12-31T08:18:46.028Z,64.85
2022-12-31T08:24:21.760Z,64.41
2022-12-31T08:29:39.955Z,64.17
2022-12-31T08:34:36.996Z,63.82
2022-12-31T08:39:35.987Z,63.55
2022-12-31T08:44:45.946Z,62.94
2022-12-31T08:49:37.706Z,62.74
2022-12-31T08:54:30.021Z,62.92
2022-12-31T08:59:29.747Z,62.70
2022-12-31T09:04:36.610Z,62.34
2022-12-31T09:09:43.559Z,62.49
2022-12-31T09:14:53.846Z,62.53
2022-12-31T09:19:45.578Z,62.21
2022-12-31T09:24:37.471Z,61.97
2022-12-31T09:29:58.358Z,61.87
2022-12-31T09:34:57.734Z,61.76
2022-12-31T09:39:49.764Z,61.67
2022-12-31T09:45:04.754Z,61.67
2022-12-31T09:50:35.449Z,61.95
2022-12-31T09:55:48.548Z,61.77
2022-12-31T10:01:08.355Z,61.84
2022-12-31T10:06:24.699Z,60.95
2022-12-31T10:11:22.292Z,60.75
2022-12-31T10:16:44.045Z,60.11
2022-12-31T10:22:14.240Z,59.91
2022-12-31T10:27:27.596Z,58.88
2022-12-31T10:33:02.697Z,58.83
2022-12-31T10:37:56.950Z,58.80
2022-12-31T10:43:10.356Z,58.78
2022-12-31T10:48:52.416Z,59.10
2022-12-31T10:53:53.108Z,59.60
2022-12-31T10:58:49.371Z,59.47
2022-12-31T11:04:02.417Z,59.10
2022-12-31T11:09:06.306Z,59.19
2022-12-31T11:14:19.611Z,58.61
2022-12-31T11:19:27.555Z,58.65
2022-12-31T11:24:46.761Z,58.11
2022-12-31T11:29:50.942Z,57.72
2022-12-31T11:34:48.470Z,56.55
2022-12-31T11:39:54.742Z,56.90
2022-12-31T11:44:57.610Z,56.92
2022-12-31T11:50:10.745Z,57.63
2022-12-31T11:55:20.930Z,58.05
2022-12-31T12:00:20.214Z,58.74
2022-12-31T12:05:15.848Z,59.04
2022-12-31T12:10:31.943Z,58.88
2022-12-31T12:15:34.890Z,59.04
2022-12-31T12:20:31.716Z,58.75
2022-12-31T12:25:26.971Z,58.98
2022-12-31T12:30:27.960Z,58.59
2022-12-31T12:35:26.188Z,57.99
2022-12-31T12:40:29.787Z,57.89
2022-12-31T12:45:39.889Z,57.64
2022-12-31T12:50:51.228Z,62.82
2022-12-31T12:56:24.619Z,61.53
2022-12-31T13:01:47.691Z,60.83
2022-12-31T13:07:07.304Z,59.87
2022-12-31T13:12:16.400Z,59.43
2022-12-31T13:17:32.156Z,58.91
2022-12-31T13:22:33.458Z,59.16
2022-12-31T13:27:39.086Z,62.39
2022-12-31T13:32:45.641Z,64.83
2022-12-31T13:37:42.093Z,64.81
2022-12-31T13:42:45.715Z,65.44
2022-12-31T13:47:45.116Z,65.07
2022-12-31T13:52:46.337Z,64.63
2022-12-31T13:58:01.726Z,65.40
2022-12-31T14:03:15.378Z,65.55
2022-12-31T14:08:07.067Z,68.31
2022-12-31T14:13:18.038Z,68.58
2022-12-31T14:18:35.333Z,68.51
2022-12-31T14:23:45.328Z,68.61
2022-12-31T14:28:47.119Z,67.96
2022-12-31T14:33:56.367Z,67.53
2022-12-31T14:39:08.519Z,67.28
2022-12-31T14:44:18.665Z,66.35
2022-12-31T14:49:50.188Z,66.09
2022-12-31T14:54:42.319Z,66.15
2022-12-31T14:59:40.102Z,66.45
2022-12-31T15:04:43.729Z,66.06
2022-12-31T15:09:56.687Z,65.77
2022-12-31T15:15:00.901Z,64.70
2022-12-31T15:20:05.358Z,63.98
2022-12-31T15:24:57.922Z,63.87
2022-12-31T15:29:49.592Z,64.54
2022-12-31T15:34:41.210Z,64.19
2022-12-31T15:39:32.792Z,63.78
2022-12-31T15:44:30.551Z,63.73
2022-12-31T15:49:24.140Z,63.64
2022-12-31T15:54:30.742Z,63.99
2022-12-31T15:59:24.527Z,63.32
2022-12-31T16:04:39.303Z,63.70
2022-12-31T16:09:34.761Z,63.93
2022-12-31T16:14:37.798Z,64.01
2022-12-31T16:19:43.619Z,64.64
2022-12-31T16:24:48.917Z,64.47
2022-12-31T16:29:55.848Z,64.53
2022-12-31T16:34:47.651Z,64.39
2022-12-31T16:39:58.106Z,63.97
2022-12-31T16:44:51.337Z,64.01
2022-12-31T16:49:43.336Z,63.77
2022-12-31T16:54:40.323Z,63.32
2022-12-31T16:59:45.452Z,63.61
2022-12-31T17:04:41.496Z,63.32
2022-12-31T17:09:38.481Z,63.03
2022-12-31T17:14:30.460Z,62.97
2022-12-31T17:19:47.208Z,62.03
2022-12-31T17:24:39.949Z,61.80
2022-12-31T17:29:33.540Z,61.62
2022-12-31T17:34:40.074Z,61.15
2022-12-31T17:39:48.176Z,61.12
2022-12-31T17:44:43.439Z,61.21
2022-12-31T17:49:36.728Z,60.15
2022-12-31T17:54:28.277Z,60.07
2022-12-31T17:59:29.694Z,59.42
2022-12-31T18:04:21.414Z,59.14
2022-12-31T18:09:13.091Z,59.36
2022-12-31T18:14:04.856Z,59.37
2022-12-31T18:18:58.874Z,58.84
2022-12-31T18:23:50.711Z,58.75
2022-12-31T18:28:42.342Z,58.42
2022-12-31T18:33:33.910Z,57.38
2022-12-31T18:38:25.469Z,56.64
2022-12-31T18:43:18.432Z,56.40
2022-12-31T18:48:10.168Z,55.44
2022-12-31T18:53:01.774Z,55.23
2022-12-31T18:57:53.376Z,55.02
2022-12-31T19:02:45.026Z,55.08
2022-12-31T19:07:36.567Z,54.70
2022-12-31T19:12:28.235Z,53.50
2022-12-31T19:17:21.529Z,52.50
2022-12-31T19:22:15.328Z,53.07
2022-12-31T19:27:06.950Z,52.20
2022-12-31T19:32:01.098Z,51.70
2022-12-31T19:36:52.883Z,51.84
2022-12-31T19:41:45.367Z,51.49
2022-12-31T19:46:36.943Z,51.57
2022-12-31T19:51:28.510Z,51.49
2022-12-31T19:56:20.319Z,51.30
2022-12-31T20:01:22.247Z,50.98
2022-12-31T20:06:14.283Z,51.19
2022-12-31T20:11:14.636Z,50.85
2022-12-31T20:16:08.744Z,50.94
2022-12-31T20:21:00.599Z,50.33
2022-12-31T20:25:59.308Z,50.66
2022-12-31T20:30:50.940Z,50.26
2022-12-31T20:35:42.517Z,50.78
2022-12-31T20:40:34.229Z,50.48
2022-12-31T20:45:25.923Z,50.22
2022-12-31T20:50:17.992Z,50.44
2022-12-31T20:55:11.212Z,50.05
2022-12-31T21:00:04.309Z,49.73
2022-12-31T21:04:56.013Z,49.94
2022-12-31T21:09:47.772Z,49.49
2022-12-31T21:14:44.528Z,49.49
2022-12-31T21:19:36.448Z,49.58
2022-12-31T21:24:28.040Z,49.86
2022-12-31T21:29:19.848Z,50.93
2022-12-31T21:34:11.512Z,51.34
2022-12-31T21:39:03.503Z,51.38
2022-12-31T21:43:55.167Z,52.07
2022-12-31T21:48:46.743Z,53.15
2022-12-31T21:53:38.597Z,54.07
2022-12-31T21:58:30.851Z,53.96
2022-12-31T22:03:27.348Z,53.65
2022-12-31T22:08:20.881Z,53.60
2022-12-31T22:13:13.738Z,53.31
2022-12-31T22:18:05.379Z,52.74
2022-12-31T22:22:56.968Z,53.01
2022-12-31T22:28:04.399Z,52.80
2022-12-31T22:33:00.356Z,52.19
2022-12-31T22:37:57.536Z,51.68
2022-12-31T22:42:51.982Z,51.08
2022-12-31T22:47:43.491Z,51.25
2022-12-31T22:52:35.055Z,50.74
2022-12-31T22:57:26.674Z,50.88
2022-12-31T23:02:18.367Z,50.93
2022-12-31T23:07:09.864Z,50.57
2022-12-31T23:12:02.931Z,49.74
2022-12-31T23:17:29.653Z,49.09
2022-12-31T23:22:42.169Z,48.63
2022-12-31T23:27:33.771Z,48.47
2022-12-31T23:32:25.389Z,48.87
2022-12-31T23:37:16.958Z,48.79
2022-12-31T23:42:08.736Z,48.88
2022-12-31T23:47:00.353Z,49.29
2022-12-31T23:51:52.009Z,49.67
2022-12-31T23:56:43.645Z,49.70
